sensor_id;sensor_type;location;lat;lon;timestamp;pressure;altitude;pressure_sealevel;temperature;humidity
44131;BME280;29792;48.726;9.248;2023-11-21T00:01:54;96323.50;;;7.92;100.00
44131;BME280;29792;48.726;9.248;2023-11-21T00:04:19;96313.53;;;7.89;100.00
44131;BME280;29792;48.726;9.248;2023-11-21T00:06:44;96310.75;;;7.92;100.00
44131;BME280;29792;48.726;9.248;2023-11-21T00:09:12;96313.31;;;7.92;100.00
44131;BME280;29792;48.726;9.248;2023-11-21T00:11:38;96310.06;;;7.90;100.00
44131;BME280;29792;48.726;9.248;2023-11-21T00:14:03;96311.44;;;7.94;100.00
44131;BME280;29792;48.726;9.248;2023-11-21T00:16:28;96310.63;;;7.93;100.00
44131;BME280;29792;48.726;9.248;2023-11-21T00:18:54;96311.44;;;7.94;100.00
44131;BME280;29792;48.726;9.248;2023-11-21T00:21:20;96300.44;;;7.93;100.00
44131;BME280;29792;48.726;9.248;2023-11-21T00:23:45;96301.34;;;7.92;100.00
44131;BME280;29792;48.726;9.248;2023-11-21T00:26:10;96305.38;;;7.95;100.00
44131;BME280;29792;48.726;9.248;2023-11-21T00:28:35;96295.44;;;7.92;100.00
44131;BME280;29792;48.726;9.248;2023-11-21T00:31:01;96296.13;;;7.94;100.00
44131;BME280;29792;48.726;9.248;2023-11-21T00:33:26;96298.69;;;7.94;100.00
44131;BME280;29792;48.726;9.248;2023-11-21T00:35:52;96304.34;;;7.97;100.00
44131;BME280;29792;48.726;9.248;2023-11-21T00:38:17;96302.59;;;7.98;100.00
44131;BME280;29792;48.726;9.248;2023-11-21T00:40:45;96299.22;;;7.97;100.00
44131;BME280;29792;48.726;9.248;2023-11-21T00:43:10;96294.94;;;7.98;100.00
44131;BME280;29792;48.726;9.248;2023-11-21T00:45:35;96299.13;;;7.99;100.00
44131;BME280;29792;48.726;9.248;2023-11-21T00:48:02;96295.75;;;7.98;100.00
44131;BME280;29792;48.726;9.248;2023-11-21T00:50:27;96303.41;;;7.98;100.00
44131;BME280;29792;48.726;9.248;2023-11-21T00:52:52;96300.16;;;7.96;100.00
44131;BME280;29792;48.726;9.248;2023-11-21T00:55:17;96292.50;;;7.96;100.00
44131;BME280;29792;48.726;9.248;2023-11-21T00:57:43;96295.88;;;7.97;100.00
44131;BME280;29792;48.726;9.248;2023-11-21T01:00:08;96290.88;;;7.95;100.00
44131;BME280;29792;48.726;9.248;2023-11-21T01:02:43;96290.09;;;7.95;100.00
44131;BME280;29792;48.726;9.248;2023-11-21T01:05:09;96296.13;;;7.94;100.00
44131;BME280;29792;48.726;9.248;2023-11-21T01:07:35;96298.00;;;7.92;100.00
44131;BME280;29792;48.726;9.248;2023-11-21T01:10:02;96299.03;;;7.89;100.00
44131;BME280;29792;48.726;9.248;2023-11-21T01:12:27;96302.63;;;7.87;100.00
44131;BME280;29792;48.726;9.248;2023-11-21T01:14:52;96299.97;;;7.88;100.00
44131;BME280;29792;48.726;9.248;2023-11-21T01:17:18;96297.19;;;7.91;100.00
44131;BME280;29792;48.726;9.248;2023-11-21T01:19:43;96304.72;;;7.93;100.00
44131;BME280;29792;48.726;9.248;2023-11-21T01:22:08;96300.53;;;7.92;100.00
44131;BME280;29792;48.726;9.248;2023-11-21T01:24:34;96298.94;;;7.91;100.00
44131;BME280;29792;48.726;9.248;2023-11-21T01:26:59;96305.66;;;7.92;100.00
44131;BME280;29792;48.726;9.248;2023-11-21T01:29:24;96297.19;;;7.91;100.00
44131;BME280;29792;48.726;9.248;2023-11-21T01:31:50;96300.44;;;7.93;100.00
44131;BME280;29792;48.726;9.248;2023-11-21T01:34:15;96303.78;;;7.94;100.00
44131;BME280;29792;48.726;9.248;2023-11-21T01:36:40;96296.94;;;7.94;100.00
44131;BME280;29792;48.726;9.248;2023-11-21T01:39:05;96294.13;;;7.97;100.00
44131;BME280;29792;48.726;9.248;2023-11-21T01:41:33;96297.50;;;7.98;100.00
44131;BME280;29792;48.726;9.248;2023-11-21T01:44:00;96289.03;;;7.97;100.00
44131;BME280;29792;48.726;9.248;2023-11-21T01:46:25;96282.19;;;7.98;100.00
44131;BME280;29792;48.726;9.248;2023-11-21T01:48:52;96279.41;;;8.01;100.00
44131;BME280;29792;48.726;9.248;2023-11-21T01:51:18;96286.78;;;8.04;100.00
44131;BME280;29792;48.726;9.248;2023-11-21T01:53:44;96285.75;;;8.07;100.00
44131;BME280;29792;48.726;9.248;2023-11-21T01:56:12;96282.50;;;8.04;100.00
44131;BME280;29792;48.726;9.248;2023-11-21T01:58:38;96283.06;;;8.08;100.00
44131;BME280;29792;48.726;9.248;2023-11-21T02:01:04;96285.50;;;8.10;100.00
44131;BME280;29792;48.726;9.248;2023-11-21T02:03:30;96289.78;;;8.09;100.00
44131;BME280;29792;48.726;9.248;2023-11-21T02:05:56;96294.09;;;8.09;100.00
44131;BME280;29792;48.726;9.248;2023-11-21T02:08:21;96296.75;;;8.07;100.00
44131;BME280;29792;48.726;9.248;2023-11-21T02:10:46;96295.81;;;8.08;100.00
44131;BME280;29792;48.726;9.248;2023-11-21T02:13:13;96295.69;;;8.10;100.00
44131;BME280;29792;48.726;9.248;2023-11-21T02:15:38;96288.84;;;8.10;100.00
44131;BME280;29792;48.726;9.248;2023-11-21T02:18:04;96297.16;;;8.12;100.00
44131;BME280;29792;48.726;9.248;2023-11-21T02:20:31;96289.53;;;8.12;100.00
44131;BME280;29792;48.726;9.248;2023-11-21T02:22:57;96275.84;;;8.13;100.00
44131;BME280;29792;48.726;9.248;2023-11-21T02:27:54;96283.50;;;8.13;100.00
44131;BME280;29792;48.726;9.248;2023-11-21T02:30:20;96279.19;;;8.14;100.00
44131;BME280;29792;48.726;9.248;2023-11-21T02:32:47;96287.66;;;8.14;100.00
44131;BME280;29792;48.726;9.248;2023-11-21T02:35:13;96277.56;;;8.13;100.00
44131;BME280;29792;48.726;9.248;2023-11-21T02:37:38;96282.94;;;8.10;100.00
44131;BME280;29792;48.726;9.248;2023-11-21T02:40:04;96274.22;;;8.12;100.00
44131;BME280;29792;48.726;9.248;2023-11-21T02:42:31;96276.75;;;8.12;100.00
44131;BME280;29792;48.726;9.248;2023-11-21T02:44:56;96274.09;;;8.14;100.00
44131;BME280;29792;48.726;9.248;2023-11-21T02:47:22;96275.16;;;8.11;100.00
44131;BME280;29792;48.726;9.248;2023-11-21T02:49:48;96274.50;;;8.09;100.00
44131;BME280;29792;48.726;9.248;2023-11-21T02:52:13;96272.88;;;8.08;100.00
44131;BME280;29792;48.726;9.248;2023-11-21T02:54:38;96275.53;;;8.07;100.00
44131;BME280;29792;48.726;9.248;2023-11-21T02:57:04;96265.34;;;8.07;100.00
44131;BME280;29792;48.726;9.248;2023-11-21T02:59:29;96268.94;;;8.04;100.00
44131;BME280;29792;48.726;9.248;2023-11-21T03:01:54;96271.63;;;8.02;100.00
44131;BME280;29792;48.726;9.248;2023-11-21T03:04:21;96274.31;;;8.01;100.00
44131;BME280;29792;48.726;9.248;2023-11-21T03:06:47;96277.22;;;7.96;100.00
44131;BME280;29792;48.726;9.248;2023-11-21T03:09:12;96263.22;;;7.91;100.00
44131;BME280;29792;48.726;9.248;2023-11-21T03:11:38;96269.03;;;7.93;100.00
44131;BME280;29792;48.726;9.248;2023-11-21T03:14:03;96272.22;;;7.95;100.00
44131;BME280;29792;48.726;9.248;2023-11-21T03:16:28;96276.41;;;7.96;100.00
44131;BME280;29792;48.726;9.248;2023-11-21T03:18:54;96270.63;;;7.94;100.00
44131;BME280;29792;48.726;9.248;2023-11-21T03:21:19;96269.84;;;7.93;100.00
44131;BME280;29792;48.726;9.248;2023-11-21T03:23:44;96276.78;;;7.91;100.00
44131;BME280;29792;48.726;9.248;2023-11-21T03:26:12;96268.34;;;7.91;100.00
44131;BME280;29792;48.726;9.248;2023-11-21T03:28:38;96276.91;;;7.90;100.00
44131;BME280;29792;48.726;9.248;2023-11-21T03:31:04;96281.19;;;7.89;100.00
44131;BME280;29792;48.726;9.248;2023-11-21T03:33:31;96280.38;;;7.89;100.00
44131;BME280;29792;48.726;9.248;2023-11-21T03:35:56;96281.47;;;7.86;100.00
44131;BME280;29792;48.726;9.248;2023-11-21T03:38:22;96278.09;;;7.86;100.00
44131;BME280;29792;48.726;9.248;2023-11-21T03:40:48;96279.69;;;7.87;100.00
44131;BME280;29792;48.726;9.248;2023-11-21T03:43:13;96272.03;;;7.87;100.00
44131;BME280;29792;48.726;9.248;2023-11-21T03:45:38;96277.16;;;7.87;100.00
44131;BME280;29792;48.726;9.248;2023-11-21T03:48:06;96278.09;;;7.86;100.00
44131;BME280;29792;48.726;9.248;2023-11-21T03:50:31;96287.50;;;7.85;100.00
44131;BME280;29792;48.726;9.248;2023-11-21T03:52:56;96276.72;;;7.82;100.00
44131;BME280;29792;48.726;9.248;2023-11-21T03:55:22;96281.47;;;7.86;100.00
44131;BME280;29792;48.726;9.248;2023-11-21T03:57:49;96280.66;;;7.86;100.00
44131;BME280;29792;48.726;9.248;2023-11-21T04:00:14;96278.91;;;7.86;100.00
44131;BME280;29792;48.726;9.248;2023-11-21T04:02:41;96281.31;;;7.88;100.00
44131;BME280;29792;48.726;9.248;2023-11-21T04:05:06;96277.94;;;7.87;100.00
44131;BME280;29792;48.726;9.248;2023-11-21T04:07:32;96282.25;;;7.87;100.00
44131;BME280;29792;48.726;9.248;2023-11-21T04:09:57;96284.94;;;7.85;100.00
44131;BME280;29792;48.726;9.248;2023-11-21T04:12:23;96285.88;;;7.84;100.00
44131;BME280;29792;48.726;9.248;2023-11-21T04:14:48;96290.16;;;7.84;100.00
44131;BME280;29792;48.726;9.248;2023-11-21T04:17:13;96279.50;;;7.79;100.00
44131;BME280;29792;48.726;9.248;2023-11-21T04:19:38;96286.09;;;7.81;100.00
44131;BME280;29792;48.726;9.248;2023-11-21T04:22:04;96286.22;;;7.80;100.00
44131;BME280;29792;48.726;9.248;2023-11-21T04:24:29;96289.84;;;7.77;100.00
44131;BME280;29792;48.726;9.248;2023-11-21T04:26:54;96290.66;;;7.78;100.00
44131;BME280;29792;48.726;9.248;2023-11-21T04:29:20;96282.31;;;7.76;100.00
44131;BME280;29792;48.726;9.248;2023-11-21T04:31:45;96287.31;;;7.77;100.00
44131;BME280;29792;48.726;9.248;2023-11-21T04:34:11;96289.84;;;7.77;100.00
44131;BME280;29792;48.726;9.248;2023-11-21T04:36:39;96294.81;;;7.79;100.00
44131;BME280;29792;48.726;9.248;2023-11-21T04:39:05;96294.03;;;7.78;100.00
44131;BME280;29792;48.726;9.248;2023-11-21T04:41:31;96297.34;;;7.79;100.00
44131;BME280;29792;48.726;9.248;2023-11-21T04:43:57;96294.38;;;7.74;100.00
44131;BME280;29792;48.726;9.248;2023-11-21T04:46:22;96299.47;;;7.74;100.00
44131;BME280;29792;48.726;9.248;2023-11-21T04:48:47;96301.09;;;7.75;100.00
44131;BME280;29792;48.726;9.248;2023-11-21T04:51:12;96298.66;;;7.73;100.00
44131;BME280;29792;48.726;9.248;2023-11-21T04:53:38;96295.19;;;7.74;100.00
44131;BME280;29792;48.726;9.248;2023-11-21T04:56:04;96291.94;;;7.72;100.00
44131;BME280;29792;48.726;9.248;2023-11-21T04:58:30;96296.91;;;7.74;100.00
44131;BME280;29792;48.726;9.248;2023-11-21T05:00:55;96308.97;;;7.72;100.00
44131;BME280;29792;48.726;9.248;2023-11-21T05:03:20;96303.06;;;7.71;100.00
44131;BME280;29792;48.726;9.248;2023-11-21T05:05:46;96304.94;;;7.69;100.00
44131;BME280;29792;48.726;9.248;2023-11-21T05:08:11;96305.88;;;7.68;100.00
44131;BME280;29792;48.726;9.248;2023-11-21T05:10:36;96315.00;;;7.71;100.00
44131;BME280;29792;48.726;9.248;2023-11-21T05:13:04;96305.63;;;7.71;100.00
44131;BME280;29792;48.726;9.248;2023-11-21T05:15:29;96305.50;;;7.73;100.00
44131;BME280;29792;48.726;9.248;2023-11-21T05:17:54;96310.47;;;7.74;100.00
44131;BME280;29792;48.726;9.248;2023-11-21T05:20:20;96312.22;;;7.74;100.00
44131;BME280;29792;48.726;9.248;2023-11-21T05:22:46;96312.44;;;7.71;100.00
44131;BME280;29792;48.726;9.248;2023-11-21T05:25:13;96319.97;;;7.72;100.00
44131;BME280;29792;48.726;9.248;2023-11-21T05:27:39;96326.69;;;7.73;100.00
44131;BME280;29792;48.726;9.248;2023-11-21T05:30:05;96333.53;;;7.73;100.00
44131;BME280;29792;48.726;9.248;2023-11-21T05:32:31;96327.50;;;7.74;100.00
44131;BME280;29792;48.726;9.248;2023-11-21T05:34:57;96330.88;;;7.74;100.00
44131;BME280;29792;48.726;9.248;2023-11-21T05:37:22;96340.94;;;7.76;100.00
44131;BME280;29792;48.726;9.248;2023-11-21T05:39:48;96336.91;;;7.73;100.00
44131;BME280;29792;48.726;9.248;2023-11-21T05:42:14;96332.72;;;7.72;100.00
44131;BME280;29792;48.726;9.248;2023-11-21T05:44:41;96336.91;;;7.73;100.00
44131;BME280;29792;48.726;9.248;2023-11-21T05:47:07;96337.59;;;7.75;100.00
44131;BME280;29792;48.726;9.248;2023-11-21T05:49:32;96329.94;;;7.75;100.00
44131;BME280;29792;48.726;9.248;2023-11-21T05:51:59;96336.34;;;7.70;100.00
44131;BME280;29792;48.726;9.248;2023-11-21T05:54:25;96335.78;;;7.66;100.00
44131;BME280;29792;48.726;9.248;2023-11-21T05:56:51;96330.91;;;7.63;100.00
44131;BME280;29792;48.726;9.248;2023-11-21T05:59:16;96339.50;;;7.62;100.00
44131;BME280;29792;48.726;9.248;2023-11-21T06:01:41;96341.25;;;7.61;100.00
44131;BME280;29792;48.726;9.248;2023-11-21T06:04:07;96341.47;;;7.58;100.00
44131;BME280;29792;48.726;9.248;2023-11-21T06:06:34;96344.84;;;7.59;100.00
44131;BME280;29792;48.726;9.248;2023-11-21T06:09:00;96347.38;;;7.59;100.00
44131;BME280;29792;48.726;9.248;2023-11-21T06:11:25;96346.56;;;7.58;100.00
44131;BME280;29792;48.726;9.248;2023-11-21T06:13:50;96357.69;;;7.57;100.00
44131;BME280;29792;48.726;9.248;2023-11-21T06:16:15;96359.31;;;7.58;100.00
44131;BME280;29792;48.726;9.248;2023-11-21T06:18:44;96360.25;;;7.57;100.00
44131;BME280;29792;48.726;9.248;2023-11-21T06:21:09;96361.06;;;7.58;100.00
44131;BME280;29792;48.726;9.248;2023-11-21T06:23:35;96370.22;;;7.60;100.00
44131;BME280;29792;48.726;9.248;2023-11-21T06:26:00;96367.88;;;7.57;100.00
44131;BME280;29792;48.726;9.248;2023-11-21T06:28:26;96364.41;;;7.58;100.00
44131;BME280;29792;48.726;9.248;2023-11-21T06:30:51;96370.44;;;7.57;100.00
44131;BME280;29792;48.726;9.248;2023-11-21T06:33:18;96370.22;;;7.60;100.00
44131;BME280;29792;48.726;9.248;2023-11-21T06:35:43;96371.81;;;7.61;100.00
44131;BME280;29792;48.726;9.248;2023-11-21T06:38:09;96375.03;;;7.63;100.00
44131;BME280;29792;48.726;9.248;2023-11-21T06:40:34;96378.50;;;7.62;100.00
44131;BME280;29792;48.726;9.248;2023-11-21T06:43:00;96382.56;;;7.65;100.00
44131;BME280;29792;48.726;9.248;2023-11-21T06:45:26;96385.00;;;7.66;100.00
44131;BME280;29792;48.726;9.248;2023-11-21T06:47:51;96388.38;;;7.67;100.00
44131;BME280;29792;48.726;9.248;2023-11-21T06:50:16;96387.31;;;7.70;100.00
44131;BME280;29792;48.726;9.248;2023-11-21T06:52:42;96398.34;;;7.70;100.00
44131;BME280;29792;48.726;9.248;2023-11-21T06:55:08;96388.81;;;7.72;100.00
44131;BME280;29792;48.726;9.248;2023-11-21T06:57:34;96396.22;;;7.75;100.00
44131;BME280;29792;48.726;9.248;2023-11-21T06:59:59;96396.91;;;7.77;100.00
44131;BME280;29792;48.726;9.248;2023-11-21T07:02:25;96400.28;;;7.78;100.00
44131;BME280;29792;48.726;9.248;2023-11-21T07:04:50;96403.50;;;7.80;100.00
44131;BME280;29792;48.726;9.248;2023-11-21T07:07:15;96404.31;;;7.80;100.00
44131;BME280;29792;48.726;9.248;2023-11-21T07:09:40;96403.38;;;7.81;100.00
44131;BME280;29792;48.726;9.248;2023-11-21T07:12:06;96414.28;;;7.83;100.00
44131;BME280;29792;48.726;9.248;2023-11-21T07:14:33;96414.38;;;7.82;100.00
44131;BME280;29792;48.726;9.248;2023-11-21T07:16:59;96414.16;;;7.85;100.00
44131;BME280;29792;48.726;9.248;2023-11-21T07:19:24;96417.38;;;7.87;100.00
44131;BME280;29792;48.726;9.248;2023-11-21T07:21:49;96410.31;;;7.90;100.00
44131;BME280;29792;48.726;9.248;2023-11-21T07:24:16;96427.94;;;7.93;100.00
44131;BME280;29792;48.726;9.248;2023-11-21T07:26:41;96431.03;;;7.97;100.00
44131;BME280;29792;48.726;9.248;2023-11-21T07:29:06;96433.47;;;7.98;100.00
44131;BME280;29792;48.726;9.248;2023-11-21T07:31:32;96433.22;;;8.01;100.00
44131;BME280;29792;48.726;9.248;2023-11-21T07:33:59;96432.03;;;8.05;100.00
44131;BME280;29792;48.726;9.248;2023-11-21T07:36:24;96430.88;;;8.10;100.00
44131;BME280;29792;48.726;9.248;2023-11-21T07:38:50;96426.44;;;8.12;100.00
44131;BME280;29792;48.726;9.248;2023-11-21T07:41:17;96438.28;;;8.13;100.00
44131;BME280;29792;48.726;9.248;2023-11-21T07:43:45;96431.31;;;8.15;100.00
44131;BME280;29792;48.726;9.248;2023-11-21T07:46:12;96438.03;;;8.16;100.00
44131;BME280;29792;48.726;9.248;2023-11-21T07:48:38;96443.16;;;8.16;100.00
44131;BME280;29792;48.726;9.248;2023-11-21T07:51:04;96445.81;;;8.14;100.00
44131;BME280;29792;48.726;9.248;2023-11-21T07:53:29;96449.56;;;8.10;100.00
44131;BME280;29792;48.726;9.248;2023-11-21T07:55:58;96450.47;;;8.09;100.00
44131;BME280;29792;48.726;9.248;2023-11-21T07:58:24;96458.00;;;8.11;100.00
44131;BME280;29792;48.726;9.248;2023-11-21T08:00:50;96453.56;;;8.13;100.00
44131;BME280;29792;48.726;9.248;2023-11-21T08:03:15;96456.13;;;8.13;100.00
44131;BME280;29792;48.726;9.248;2023-11-21T08:05:41;96454.38;;;8.13;100.00
44131;BME280;29792;48.726;9.248;2023-11-21T08:08:06;96455.31;;;8.12;100.00
44131;BME280;29792;48.726;9.248;2023-11-21T08:10:31;96455.09;;;8.15;100.00
44131;BME280;29792;48.726;9.248;2023-11-21T08:12:57;96462.63;;;8.17;100.00
44131;BME280;29792;48.726;9.248;2023-11-21T08:15:22;96462.75;;;8.15;100.00
44131;BME280;29792;48.726;9.248;2023-11-21T08:17:47;96468.66;;;8.16;100.00
44131;BME280;29792;48.726;9.248;2023-11-21T08:20:13;96466.00;;;8.17;100.00
44131;BME280;29792;48.726;9.248;2023-11-21T08:22:41;96466.66;;;8.19;100.00
44131;BME280;29792;48.726;9.248;2023-11-21T08:25:06;96468.28;;;8.20;100.00
44131;BME280;29792;48.726;9.248;2023-11-21T08:27:33;96470.81;;;8.20;100.00
44131;BME280;29792;48.726;9.248;2023-11-21T08:30:00;96469.56;;;8.26;100.00
44131;BME280;29792;48.726;9.248;2023-11-21T08:32:25;96460.97;;;8.27;100.00
44131;BME280;29792;48.726;9.248;2023-11-21T08:34:50;96464.78;;;8.32;100.00
44131;BME280;29792;48.726;9.248;2023-11-21T08:37:16;96478.09;;;8.36;100.00
44131;BME280;29792;48.726;9.248;2023-11-21T08:39:44;96482.16;;;8.38;100.00
44131;BME280;29792;48.726;9.248;2023-11-21T08:42:09;96476.81;;;8.41;100.00
44131;BME280;29792;48.726;9.248;2023-11-21T08:44:34;96477.63;;;8.42;100.00
44131;BME280;29792;48.726;9.248;2023-11-21T08:46:59;96479.81;;;8.47;100.00
44131;BME280;29792;48.726;9.248;2023-11-21T08:49:25;96475.63;;;8.46;100.00
44131;BME280;29792;48.726;9.248;2023-11-21T08:51:52;96478.38;;;8.54;100.00
44131;BME280;29792;48.726;9.248;2023-11-21T08:54:20;96481.75;;;8.54;100.00
44131;BME280;29792;48.726;9.248;2023-11-21T08:56:46;96489.16;;;8.57;100.00
44131;BME280;29792;48.726;9.248;2023-11-21T08:59:11;96489.72;;;8.61;100.00
44131;BME280;29792;48.726;9.248;2023-11-21T09:01:39;96485.06;;;8.66;100.00
44131;BME280;29792;48.726;9.248;2023-11-21T09:04:05;96497.56;;;8.69;100.00
44131;BME280;29792;48.726;9.248;2023-11-21T09:06:31;96493.03;;;8.72;100.00
44131;BME280;29792;48.726;9.248;2023-11-21T09:08:56;96495.78;;;8.80;100.00
44131;BME280;29792;48.726;9.248;2023-11-21T09:11:21;96502.13;;;8.86;100.00
44131;BME280;29792;48.726;9.248;2023-11-21T09:13:47;96496.25;;;8.95;100.00
44131;BME280;29792;48.726;9.248;2023-11-21T09:16:14;96498.06;;;9.04;100.00
44131;BME280;29792;48.726;9.248;2023-11-21T09:18:39;96507.78;;;9.10;100.00
44131;BME280;29792;48.726;9.248;2023-11-21T09:21:05;96501.91;;;9.19;100.00
44131;BME280;29792;48.726;9.248;2023-11-21T09:23:30;96503.28;;;9.24;100.00
44131;BME280;29792;48.726;9.248;2023-11-21T09:25:55;96508.94;;;9.27;100.00
44131;BME280;29792;48.726;9.248;2023-11-21T09:28:22;96510.31;;;9.31;100.00
44131;BME280;29792;48.726;9.248;2023-11-21T09:30:47;96509.94;;;9.36;100.00
44131;BME280;29792;48.726;9.248;2023-11-21T09:33:14;96508.91;;;9.48;100.00
44131;BME280;29792;48.726;9.248;2023-11-21T09:35:40;96504.94;;;9.65;100.00
44131;BME280;29792;48.726;9.248;2023-11-21T09:38:05;96503.06;;;9.76;100.00
44131;BME280;29792;48.726;9.248;2023-11-21T09:40:37;96509.84;;;9.87;100.00
44131;BME280;29792;48.726;9.248;2023-11-21T09:43:08;96508.66;;;10.01;100.00
44131;BME280;29792;48.726;9.248;2023-11-21T09:46:04;96508.00;;;10.08;100.00
44131;BME280;29792;48.726;9.248;2023-11-21T09:48:29;96511.00;;;10.13;100.00
44131;BME280;29792;48.726;9.248;2023-11-21T09:50:55;96512.34;;;10.17;100.00
44131;BME280;29792;48.726;9.248;2023-11-21T09:53:22;96518.03;;;10.21;100.00
44131;BME280;29792;48.726;9.248;2023-11-21T09:55:51;96513.97;;;10.18;100.00
44131;BME280;29792;48.726;9.248;2023-11-21T09:58:18;96522.34;;;10.20;100.00
44131;BME280;29792;48.726;9.248;2023-11-21T10:00:45;96515.94;;;10.15;100.00
44131;BME280;29792;48.726;9.248;2023-11-21T10:03:11;96524.84;;;10.11;100.00
44131;BME280;29792;48.726;9.248;2023-11-21T10:05:37;96527.78;;;10.06;100.00
44131;BME280;29792;48.726;9.248;2023-11-21T10:08:10;96527.94;;;10.05;100.00
44131;BME280;29792;48.726;9.248;2023-11-21T10:10:37;96525.63;;;10.02;100.00
44131;BME280;29792;48.726;9.248;2023-11-21T10:13:04;96525.22;;;9.97;100.00
44131;BME280;29792;48.726;9.248;2023-11-21T10:15:35;96531.28;;;9.95;100.00
44131;BME280;29792;48.726;9.248;2023-11-21T10:18:05;96522.91;;;9.93;100.00
44131;BME280;29792;48.726;9.248;2023-11-21T10:20:33;96536.78;;;9.91;100.00
44131;BME280;29792;48.726;9.248;2023-11-21T10:23:03;96531.94;;;9.88;100.00
44131;BME280;29792;48.726;9.248;2023-11-21T10:25:29;96535.00;;;9.82;100.00
44131;BME280;29792;48.726;9.248;2023-11-21T10:28:00;96536.09;;;9.79;100.00
44131;BME280;29792;48.726;9.248;2023-11-21T10:30:37;96542.94;;;9.79;100.00
44131;BME280;29792;48.726;9.248;2023-11-21T10:33:06;96535.28;;;9.79;100.00
44131;BME280;29792;48.726;9.248;2023-11-21T10:35:47;96535.16;;;9.80;100.00
44131;BME280;29792;48.726;9.248;2023-11-21T10:38:15;96535.81;;;9.82;100.00
44131;BME280;29792;48.726;9.248;2023-11-21T10:40:41;96537.31;;;9.85;100.00
44131;BME280;29792;48.726;9.248;2023-11-21T10:43:08;96542.28;;;9.86;100.00
44131;BME280;29792;48.726;9.248;2023-11-21T10:45:35;96537.31;;;9.85;100.00
44131;BME280;29792;48.726;9.248;2023-11-21T10:48:00;96539.16;;;9.83;100.00
44131;BME280;29792;48.726;9.248;2023-11-21T10:50:26;96533.41;;;9.81;100.00
44131;BME280;29792;48.726;9.248;2023-11-21T10:52:51;96541.84;;;9.81;100.00
44131;BME280;29792;48.726;9.248;2023-11-21T10:55:17;96546.03;;;9.82;100.00
44131;BME280;29792;48.726;9.248;2023-11-21T10:57:53;96550.63;;;9.79;100.00
44131;BME280;29792;48.726;9.248;2023-11-21T11:00:19;96557.34;;;9.80;100.00
44131;BME280;29792;48.726;9.248;2023-11-21T11:02:51;96546.31;;;9.79;100.00
44131;BME280;29792;48.726;9.248;2023-11-21T11:05:19;96555.72;;;9.79;100.00
44131;BME280;29792;48.726;9.248;2023-11-21T11:07:48;96545.88;;;9.74;100.00
44131;BME280;29792;48.726;9.248;2023-11-21T11:10:13;96545.22;;;9.72;100.00
44131;BME280;29792;48.726;9.248;2023-11-21T11:12:40;96551.25;;;9.71;100.00
44131;BME280;29792;48.726;9.248;2023-11-21T11:15:06;96549.75;;;9.69;100.00
44131;BME280;29792;48.726;9.248;2023-11-21T11:17:35;96548.25;;;9.66;100.00
44131;BME280;29792;48.726;9.248;2023-11-21T11:20:04;96547.28;;;9.57;100.00
44131;BME280;29792;48.726;9.248;2023-11-21T11:22:48;96543.25;;;9.55;100.00
44131;BME280;29792;48.726;9.248;2023-11-21T11:25:45;96555.34;;;9.53;100.00
44131;BME280;29792;48.726;9.248;2023-11-21T11:28:27;96549.44;;;9.52;100.00
44131;BME280;29792;48.726;9.248;2023-11-21T11:31:05;96546.75;;;9.54;100.00
44131;BME280;29792;48.726;9.248;2023-11-21T11:33:53;96550.25;;;9.53;100.00
44131;BME280;29792;48.726;9.248;2023-11-21T11:37:07;96546.75;;;9.54;100.00
44131;BME280;29792;48.726;9.248;2023-11-21T11:39:29;96549.84;;;9.57;100.00
44131;BME280;29792;48.726;9.248;2023-11-21T11:41:56;96557.16;;;9.62;100.00
44131;BME280;29792;48.726;9.248;2023-11-21T11:50:10;96550.75;;;9.77;100.00
44131;BME280;29792;48.726;9.248;2023-11-21T11:52:42;96548.88;;;9.79;100.00
44131;BME280;29792;48.726;9.248;2023-11-21T11:55:10;96549.69;;;9.89;100.00
44131;BME280;29792;48.726;9.248;2023-11-21T11:57:37;96548.38;;;9.95;100.00
44131;BME280;29792;48.726;9.248;2023-11-21T12:00:11;96552.28;;;9.99;100.00
44131;BME280;29792;48.726;9.248;2023-11-21T12:02:38;96556.22;;;10.03;100.00
44131;BME280;29792;48.726;9.248;2023-11-21T12:05:18;96553.78;;;10.02;100.00
44131;BME280;29792;48.726;9.248;2023-11-21T12:07:46;96551.78;;;10.05;100.00
44131;BME280;29792;48.726;9.248;2023-11-21T12:10:13;96558.38;;;10.08;100.00
44131;BME280;29792;48.726;9.248;2023-11-21T12:12:42;96560.00;;;10.09;100.00
44131;BME280;29792;48.726;9.248;2023-11-21T12:15:08;96560.94;;;10.08;100.00
44131;BME280;29792;48.726;9.248;2023-11-21T12:17:34;96556.63;;;10.08;100.00
44131;BME280;29792;48.726;9.248;2023-11-21T12:20:03;96564.28;;;10.08;100.00
44131;BME280;29792;48.726;9.248;2023-11-21T12:22:30;96564.56;;;10.05;100.00
44131;BME280;29792;48.726;9.248;2023-11-21T12:24:56;96561.34;;;10.03;100.00
44131;BME280;29792;48.726;9.248;2023-11-21T12:27:21;96560.66;;;10.01;100.00
44131;BME280;29792;48.726;9.248;2023-11-21T12:29:46;96565.63;;;10.03;100.00
44131;BME280;29792;48.726;9.248;2023-11-21T12:32:11;96560.66;;;10.01;100.00
44131;BME280;29792;48.726;9.248;2023-11-21T12:34:38;96569.25;;;10.00;100.00
44131;BME280;29792;48.726;9.248;2023-11-21T12:37:04;96561.59;;;10.00;100.00
44131;BME280;29792;48.726;9.248;2023-11-21T12:39:29;96568.31;;;10.01;100.00
44131;BME280;29792;48.726;9.248;2023-11-21T12:41:55;96576.81;;;10.02;100.00
44131;BME280;29792;48.726;9.248;2023-11-21T12:44:20;96577.63;;;10.02;100.00
44131;BME280;29792;48.726;9.248;2023-11-21T12:46:49;96581.94;;;10.02;100.00
44131;BME280;29792;48.726;9.248;2023-11-21T12:49:14;96585.28;;;10.02;100.00
44131;BME280;29792;48.726;9.248;2023-11-21T12:51:44;96581.81;;;10.03;100.00
44131;BME280;29792;48.726;9.248;2023-11-21T12:54:10;96580.19;;;10.02;100.00
44131;BME280;29792;48.726;9.248;2023-11-21T12:56:38;96577.38;;;10.05;100.00
44131;BME280;29792;48.726;9.248;2023-11-21T12:59:04;96580.59;;;10.07;100.00
44131;BME280;29792;48.726;9.248;2023-11-21T13:01:30;96576.16;;;10.09;100.00
44131;BME280;29792;48.726;9.248;2023-11-21T13:03:59;96576.03;;;10.11;100.00
44131;BME280;29792;48.726;9.248;2023-11-21T13:06:27;96578.03;;;10.07;100.00